createdAt,value
2022-10-10T00:00:34.005Z,6.25
2022-10-10T00:05:40.122Z,6.29
2022-10-10T00:10:42.000Z,6.36
2022-10-10T00:15:48.067Z,6.41
2022-10-10T00:20:52.695Z,6.45
2022-10-10T00:25:54.740Z,6.45
2022-10-10T00:30:56.534Z,6.45
2022-10-10T00:35:59.622Z,6.44
2022-10-10T00:41:02.150Z,6.45
2022-10-10T00:46:04.418Z,6.47
2022-10-10T00:51:10.168Z,6.54
2022-10-10T00:56:14.013Z,6.66
2022-10-10T01:01:15.985Z,6.75
2022-10-10T01:06:17.708Z,6.83
2022-10-10T01:11:22.340Z,6.88
2022-10-10T01:16:29.702Z,6.91
2022-10-10T01:21:51.025Z,6.93
2022-10-10T01:27:19.019Z,6.95
2022-10-10T01:32:29.515Z,6.98
2022-10-10T01:37:46.136Z,6.99
2022-10-10T01:42:53.325Z,7.03
2022-10-10T01:48:16.352Z,7.03
2022-10-10T01:53:39.189Z,7.04
2022-10-10T01:59:03.728Z,7.03
2022-10-10T02:04:15.821Z,7.03
2022-10-10T02:09:23.274Z,7.06
2022-10-10T02:14:31.454Z,7.07
2022-10-10T02:19:34.563Z,7.07
2022-10-10T02:24:36.614Z,7.06
2022-10-10T02:29:48.813Z,7.07
2022-10-10T02:35:17.289Z,7.03
2022-10-10T02:40:28.977Z,7.01
2022-10-10T02:45:33.352Z,6.98
2022-10-10T02:50:35.688Z,6.94
2022-10-10T02:55:37.966Z,6.89
2022-10-10T03:00:39.781Z,6.84
2022-10-10T03:05:42.074Z,6.78
2022-10-10T03:10:58.882Z,6.78
2022-10-10T03:16:00.615Z,6.81
2022-10-10T03:21:08.895Z,6.84
2022-10-10T03:26:10.818Z,6.88
2022-10-10T03:31:12.612Z,6.90
2022-10-10T03:36:14.714Z,6.89
2022-10-10T03:41:16.503Z,6.87
2022-10-10T03:46:18.357Z,6.87
2022-10-10T03:51:20.287Z,6.75
2022-10-10T03:56:22.068Z,6.67
2022-10-10T04:01:23.933Z,6.61
2022-10-10T04:06:26.056Z,6.57
2022-10-10T04:11:27.977Z,6.51
2022-10-10T04:16:29.649Z,6.42
2022-10-10T04:21:31.709Z,6.27
2022-10-10T04:26:33.465Z,6.12
2022-10-10T04:31:35.737Z,5.99
2022-10-10T04:36:37.450Z,5.90
2022-10-10T04:41:39.262Z,5.82
2022-10-10T04:46:41.119Z,5.72
2022-10-10T04:51:43.000Z,5.63
2022-10-10T04:56:46.010Z,5.57
2022-10-10T05:02:11.166Z,5.53
2022-10-10T05:07:26.528Z,5.48
2022-10-10T05:12:28.324Z,5.44
2022-10-10T05:17:34.264Z,5.39
2022-10-10T05:22:36.190Z,5.37
2022-10-10T05:27:38.113Z,5.40
2022-10-10T05:32:39.829Z,5.48
2022-10-10T05:37:41.635Z,5.64
2022-10-10T05:42:46.768Z,5.84
2022-10-10T05:47:48.478Z,6.09
2022-10-10T05:52:51.528Z,6.38
2022-10-10T05:57:54.257Z,6.68
2022-10-10T06:02:58.523Z,6.98
2022-10-10T06:08:07.822Z,7.26
2022-10-10T06:13:23.845Z,7.56
2022-10-10T06:18:26.495Z,7.87
2022-10-10T06:23:29.328Z,8.21
2022-10-10T06:28:31.414Z,8.53
2022-10-10T06:33:33.518Z,8.82
2022-10-10T06:38:39.412Z,9.08
2022-10-10T06:43:41.723Z,9.37
2022-10-10T06:48:43.998Z,9.63
2022-10-10T06:53:46.551Z,9.91
2022-10-10T06:58:49.056Z,10.10
2022-10-10T07:03:50.917Z,10.29
2022-10-10T07:08:52.632Z,10.54
2022-10-10T07:13:54.535Z,10.82
2022-10-10T07:18:56.200Z,11.08
2022-10-10T07:23:58.447Z,11.33
2022-10-10T07:29:00.371Z,11.61
2022-10-10T07:34:02.761Z,11.84
2022-10-10T07:39:04.481Z,12.03
2022-10-10T07:44:30.189Z,12.28
2022-10-10T07:49:43.389Z,12.59
2022-10-10T07:54:45.060Z,12.85
2022-10-10T07:59:47.001Z,13.04
2022-10-10T08:05:09.163Z,13.21
2022-10-10T08:10:23.293Z,13.45
2022-10-10T08:15:26.897Z,13.65
2022-10-10T08:20:30.832Z,13.89
2022-10-10T08:25:33.583Z,14.09
2022-10-10T08:30:41.114Z,14.35
2022-10-10T08:35:43.102Z,14.62
2022-10-10T08:40:57.563Z,14.85
2022-10-10T08:46:06.552Z,15.04
2022-10-10T08:51:14.822Z,15.22
2022-10-10T08:56:23.620Z,15.36
2022-10-10T09:01:33.799Z,15.55
2022-10-10T09:06:53.724Z,15.78
2022-10-10T09:12:14.535Z,16.07
2022-10-10T09:17:38.102Z,16.37
2022-10-10T09:22:53.183Z,16.77
2022-10-10T09:28:03.553Z,17.20
2022-10-10T09:33:23.572Z,17.45
2022-10-10T09:38:37.541Z,17.51
2022-10-10T09:43:41.039Z,17.73
2022-10-10T09:48:43.232Z,17.94
2022-10-10T09:53:47.597Z,18.16
2022-10-10T09:58:51.982Z,18.34
2022-10-10T10:04:30.131Z,18.55
2022-10-10T10:09:32.153Z,18.69
2022-10-10T10:14:38.812Z,18.86
2022-10-10T10:19:43.970Z,19.07
2022-10-10T10:24:45.847Z,19.27
2022-10-10T10:29:53.121Z,19.42
2022-10-10T10:35:07.965Z,19.59
2022-10-10T10:40:25.139Z,19.66
2022-10-10T10:45:45.514Z,19.85
2022-10-10T10:51:29.567Z,20.12
2022-10-10T10:56:46.404Z,20.45
2022-10-10T11:02:11.498Z,20.63
2022-10-10T11:07:22.523Z,20.83
2022-10-10T11:12:43.555Z,21.03
2022-10-10T11:17:51.279Z,21.06
2022-10-10T11:23:08.670Z,21.13
2022-10-10T11:28:22.390Z,21.31
2022-10-10T11:33:30.770Z,21.53
2022-10-10T11:38:59.789Z,21.65
2022-10-10T11:44:19.108Z,21.78
2022-10-10T11:49:42.640Z,21.87
2022-10-10T11:55:37.591Z,22.00
2022-10-10T12:00:46.124Z,22.03
2022-10-10T12:05:53.074Z,22.10
2022-10-10T12:11:05.699Z,22.16
2022-10-10T12:16:43.122Z,22.27
2022-10-10T12:22:09.095Z,22.50
2022-10-10T12:27:27.472Z,22.53
2022-10-10T12:32:43.671Z,22.62
2022-10-10T12:38:05.984Z,22.70
2022-10-10T12:43:26.190Z,22.65
2022-10-10T12:48:27.973Z,22.73
2022-10-10T12:53:33.399Z,22.78
2022-10-10T12:58:39.368Z,22.88
2022-10-10T13:04:02.245Z,22.92
2022-10-10T13:09:18.417Z,22.91
2022-10-10T13:14:21.069Z,22.93
2022-10-10T13:19:25.163Z,22.89
2022-10-10T13:24:31.983Z,22.79
2022-10-10T13:29:36.015Z,22.83
2022-10-10T13:34:42.499Z,22.95
2022-10-10T13:40:03.150Z,23.06
2022-10-10T13:45:30.282Z,23.12
2022-10-10T13:50:44.705Z,23.13
2022-10-10T13:55:59.993Z,23.07
2022-10-10T14:01:04.328Z,23.04
2022-10-10T14:06:08.009Z,22.98
2022-10-10T14:11:17.800Z,22.96
2022-10-10T14:16:20.170Z,22.93
2022-10-10T14:21:23.028Z,22.82
2022-10-10T14:26:25.137Z,22.71
2022-10-10T14:31:28.941Z,22.54
2022-10-10T14:36:30.826Z,22.36
2022-10-10T14:41:32.682Z,22.25
2022-10-10T14:46:35.015Z,22.10
2022-10-10T14:51:38.612Z,21.86
2022-10-10T14:57:08.237Z,21.58
2022-10-10T15:02:06.578Z,21.44
2022-10-10T15:07:14.365Z,21.31
2022-10-10T15:12:18.413Z,21.04
2022-10-10T15:17:20.319Z,20.68
2022-10-10T15:22:30.247Z,20.31
2022-10-10T15:27:32.835Z,19.93
2022-10-10T15:32:41.323Z,19.56
2022-10-10T15:37:43.613Z,19.17
2022-10-10T15:42:46.382Z,18.75
2022-10-10T15:47:48.326Z,18.34
2022-10-10T15:52:50.081Z,17.89
2022-10-10T15:57:51.792Z,17.44
2022-10-10T16:02:53.620Z,17.02
2022-10-10T16:08:07.516Z,16.57
2022-10-10T16:13:10.783Z,16.16
2022-10-10T16:18:12.696Z,15.81
2022-10-10T16:23:14.707Z,15.49
2022-10-10T16:28:16.667Z,15.19
2022-10-10T16:33:20.350Z,14.89
2022-10-10T16:38:22.047Z,14.63
2022-10-10T16:43:23.861Z,14.39
2022-10-10T16:48:25.765Z,14.17
2022-10-10T16:53:27.955Z,14.00
2022-10-10T16:58:30.011Z,13.81
2022-10-10T17:03:31.812Z,13.69
2022-10-10T17:08:34.197Z,13.55
2022-10-10T17:13:43.092Z,13.43
2022-10-10T17:18:44.946Z,13.46
2022-10-10T17:23:47.777Z,13.39
2022-10-10T17:28:50.417Z,13.29
2022-10-10T17:33:54.397Z,13.20
2022-10-10T17:39:03.795Z,13.10
2022-10-10T17:44:10.256Z,12.98
2022-10-10T17:49:12.421Z,12.85
2022-10-10T17:54:14.418Z,12.72
2022-10-10T17:59:16.156Z,12.60
2022-10-10T18:04:17.885Z,12.47
2022-10-10T18:09:20.176Z,12.32
2022-10-10T18:14:22.481Z,12.19
2022-10-10T18:19:24.823Z,12.05
2022-10-10T18:24:26.934Z,11.92
2022-10-10T18:29:28.746Z,11.76
2022-10-10T18:34:30.587Z,11.61
2022-10-10T18:39:35.636Z,11.47
2022-10-10T18:44:37.371Z,11.34
2022-10-10T18:49:39.087Z,11.24
2022-10-10T18:54:41.229Z,11.10
2022-10-10T18:59:43.250Z,10.89
2022-10-10T19:04:47.998Z,10.70
2022-10-10T19:09:50.112Z,10.50
2022-10-10T19:14:52.009Z,10.32
2022-10-10T19:19:53.909Z,10.16
2022-10-10T19:24:56.512Z,10.00
2022-10-10T19:29:59.330Z,9.82
2022-10-10T19:35:01.311Z,9.65
2022-10-10T19:40:03.566Z,9.48
2022-10-10T19:45:15.327Z,9.32
2022-10-10T19:50:26.421Z,9.15
2022-10-10T19:55:28.617Z,8.97
2022-10-10T20:00:30.532Z,8.83
2022-10-10T20:05:32.223Z,8.68
2022-10-10T20:10:34.332Z,8.58
2022-10-10T20:15:43.136Z,8.49
2022-10-10T20:20:48.326Z,8.46
2022-10-10T20:25:50.900Z,8.52
2022-10-10T20:30:53.951Z,8.53
2022-10-10T20:35:56.285Z,8.52
2022-10-10T20:41:05.413Z,8.52
2022-10-10T20:46:08.979Z,8.55
2022-10-10T20:51:13.649Z,8.67
2022-10-10T20:56:15.380Z,8.81
2022-10-10T21:01:21.330Z,8.94
2022-10-10T21:06:27.285Z,9.04
2022-10-10T21:11:29.038Z,9.10
2022-10-10T21:16:33.991Z,9.14
2022-10-10T21:21:38.382Z,9.18
2022-10-10T21:26:42.002Z,9.20
2022-10-10T21:31:43.922Z,9.28
2022-10-10T21:36:54.783Z,9.43
2022-10-10T21:41:56.486Z,9.60
2022-10-10T21:46:58.313Z,9.80
2022-10-10T21:52:00.373Z,10.02
2022-10-10T21:57:02.078Z,10.28
2022-10-10T22:02:03.948Z,10.49
2022-10-10T22:07:05.643Z,10.70
2022-10-10T22:12:27.262Z,10.93
2022-10-10T22:17:37.171Z,11.27
2022-10-10T22:22:41.359Z,11.53
2022-10-10T22:27:44.097Z,11.73
2022-10-10T22:32:45.893Z,11.94
2022-10-10T22:37:47.730Z,12.12
2022-10-10T22:42:50.156Z,12.29
2022-10-10T22:47:51.955Z,12.41
2022-10-10T22:52:53.775Z,12.51
2022-10-10T22:57:55.545Z,12.64
2022-10-10T23:02:58.464Z,12.73
2022-10-10T23:08:00.488Z,12.85
2022-10-10T23:13:09.559Z,12.98
2022-10-10T23:18:11.633Z,13.10
2022-10-10T23:23:14.127Z,13.20
2022-10-10T23:28:17.450Z,13.29
2022-10-10T23:33:19.276Z,13.34
2022-10-10T23:38:20.956Z,13.40
2022-10-10T23:43:23.924Z,13.45
2022-10-10T23:48:25.747Z,13.48
2022-10-10T23:53:27.609Z,13.50
2022-10-10T23:58:29.326Z,13.51
